createdAt,value
2023-07-20T00:00:59.356Z,5.70
2023-07-20T00:03:26.962Z,5.70
2023-07-20T00:05:54.265Z,5.70
2023-07-20T00:08:21.501Z,5.30
2023-07-20T00:10:48.808Z,5.50
2023-07-20T00:13:17.360Z,5.50
2023-07-20T00:15:45.359Z,5.40
2023-07-20T00:18:14.308Z,5.10
2023-07-20T00:23:08.923Z,5.40
2023-07-20T00:25:36.719Z,5.40
2023-07-20T00:28:04.008Z,5.60
2023-07-20T00:30:31.278Z,5.90
2023-07-20T00:33:00.484Z,5.50
2023-07-20T00:35:27.743Z,6.00
2023-07-20T00:37:54.998Z,5.60
2023-07-20T00:40:23.007Z,5.70
2023-07-20T00:42:50.487Z,5.80
2023-07-20T00:45:22.598Z,5.70
2023-07-20T00:47:49.910Z,5.50
2023-07-20T00:50:17.097Z,5.20
2023-07-20T00:52:46.517Z,5.20
2023-07-20T00:55:13.742Z,5.40
2023-07-20T00:57:40.922Z,5.10
2023-07-20T01:00:09.023Z,5.60
2023-07-20T01:02:37.014Z,5.30
2023-07-20T01:05:05.129Z,4.90
2023-07-20T01:10:13.745Z,5.00
2023-07-20T01:12:44.907Z,5.20
2023-07-20T01:15:12.338Z,4.80
2023-07-20T01:17:39.744Z,5.50
2023-07-20T01:20:12.192Z,5.40
2023-07-20T01:22:57.780Z,5.20
2023-07-20T01:26:05.036Z,5.30
2023-07-20T01:29:01.476Z,4.60
2023-07-20T01:31:35.314Z,5.30
2023-07-20T01:34:03.507Z,5.00
2023-07-20T01:36:32.312Z,5.30
2023-07-20T01:38:59.587Z,5.20
2023-07-20T01:41:26.781Z,4.80
2023-07-20T01:43:53.898Z,5.10
2023-07-20T01:46:23.032Z,4.80
2023-07-20T01:48:52.302Z,5.10
2023-07-20T01:51:19.586Z,5.50
2023-07-20T01:53:49.217Z,5.30
2023-07-20T01:56:16.942Z,5.20
2023-07-20T01:58:44.152Z,5.30
2023-07-20T02:01:11.389Z,5.30
2023-07-20T02:03:38.663Z,4.90
2023-07-20T02:06:05.873Z,5.10
2023-07-20T02:08:33.013Z,5.00
2023-07-20T02:11:00.247Z,5.00
2023-07-20T02:13:27.500Z,5.10
2023-07-20T02:15:55.050Z,5.10
2023-07-20T02:18:22.367Z,5.70
2023-07-20T02:20:49.498Z,4.90
2023-07-20T02:23:18.106Z,4.70
2023-07-20T02:25:45.753Z,5.80
2023-07-20T02:28:15.467Z,5.10
2023-07-20T02:30:43.024Z,5.20
2023-07-20T02:33:10.359Z,5.00
2023-07-20T02:35:37.506Z,5.00
2023-07-20T02:38:05.992Z,4.80
2023-07-20T02:40:33.263Z,5.00
2023-07-20T02:43:00.527Z,4.60
2023-07-20T02:45:27.845Z,4.60
2023-07-20T02:47:55.144Z,5.00
2023-07-20T02:50:22.317Z,4.70
2023-07-20T02:52:49.671Z,4.60
2023-07-20T02:55:17.113Z,4.50
2023-07-20T02:57:44.278Z,5.30
2023-07-20T03:00:12.985Z,5.00
2023-07-20T03:02:40.237Z,5.20
2023-07-20T03:05:08.978Z,5.40
2023-07-20T03:07:37.759Z,4.70
2023-07-20T03:10:05.941Z,5.10
2023-07-20T03:12:35.560Z,5.20
2023-07-20T03:15:07.001Z,5.00
2023-07-20T03:17:34.494Z,4.90
2023-07-20T03:20:03.980Z,5.00
2023-07-20T03:22:32.026Z,5.20
2023-07-20T03:24:59.510Z,5.20
2023-07-20T03:27:27.488Z,4.60
2023-07-20T03:29:55.076Z,5.20
2023-07-20T03:32:23.887Z,4.70
2023-07-20T03:34:51.504Z,5.00
2023-07-20T03:37:18.757Z,4.30
2023-07-20T03:39:46.138Z,4.60
2023-07-20T03:42:13.415Z,4.90
2023-07-20T03:44:42.016Z,5.00
2023-07-20T03:47:10.596Z,4.90
2023-07-20T03:49:38.055Z,5.00
2023-07-20T03:52:05.976Z,5.10
2023-07-20T03:54:33.210Z,4.70
2023-07-20T03:57:02.052Z,5.10
2023-07-20T03:59:30.922Z,5.30
2023-07-20T04:01:58.109Z,5.70
2023-07-20T04:04:25.288Z,5.30
2023-07-20T04:06:52.994Z,5.40
2023-07-20T04:09:20.483Z,5.90
2023-07-20T04:11:47.735Z,5.60
2023-07-20T04:14:14.984Z,6.10
2023-07-20T04:16:42.311Z,5.60
2023-07-20T04:19:10.479Z,5.90
2023-07-20T04:21:42.400Z,5.50
2023-07-20T04:24:09.688Z,5.80
2023-07-20T04:26:38.324Z,5.60
2023-07-20T04:29:05.621Z,5.90
2023-07-20T04:31:35.784Z,6.10
2023-07-20T04:34:04.337Z,5.90
2023-07-20T04:36:33.600Z,6.30
2023-07-20T04:39:00.905Z,6.20
2023-07-20T04:41:35.986Z,5.70
2023-07-20T04:44:03.309Z,5.60
2023-07-20T04:46:31.713Z,6.00
2023-07-20T04:49:04.888Z,5.10
2023-07-20T04:51:36.620Z,5.30
2023-07-20T04:54:03.904Z,4.90
2023-07-20T04:56:35.142Z,5.20
2023-07-20T04:59:04.491Z,4.90
2023-07-20T05:01:32.151Z,4.90
2023-07-20T05:03:59.470Z,5.00
2023-07-20T05:06:27.544Z,5.20
2023-07-20T05:08:54.837Z,4.90
2023-07-20T05:11:22.597Z,5.20
2023-07-20T05:13:50.645Z,5.30
2023-07-20T05:16:18.632Z,6.00
2023-07-20T05:18:46.127Z,5.50
2023-07-20T05:21:14.793Z,5.30
2023-07-20T05:23:43.083Z,5.80
2023-07-20T05:26:10.759Z,5.60
2023-07-20T05:28:40.872Z,5.50
2023-07-20T05:31:08.076Z,4.80
2023-07-20T05:33:36.039Z,4.90
2023-07-20T05:36:03.328Z,4.60
2023-07-20T05:38:30.572Z,4.80
2023-07-20T05:41:01.370Z,4.80
2023-07-20T05:43:28.540Z,4.80
2023-07-20T05:45:55.831Z,4.60
2023-07-20T05:48:23.146Z,4.70
2023-07-20T05:50:50.815Z,4.60
2023-07-20T05:53:18.089Z,4.70
2023-07-20T05:55:45.701Z,4.90
2023-07-20T05:58:12.810Z,4.50
2023-07-20T06:00:40.049Z,4.90
2023-07-20T06:03:08.117Z,4.90
2023-07-20T06:05:35.459Z,5.00
2023-07-20T06:08:02.740Z,4.90
2023-07-20T06:10:33.078Z,5.30
2023-07-20T06:13:00.226Z,5.00
2023-07-20T06:15:28.805Z,4.50
2023-07-20T06:17:57.581Z,4.90
2023-07-20T06:22:52.369Z,4.70
2023-07-20T06:25:21.298Z,4.80
2023-07-20T06:27:52.689Z,4.90
2023-07-20T06:30:20.109Z,5.10
2023-07-20T06:32:47.423Z,4.80
2023-07-20T06:35:15.176Z,4.80
2023-07-20T06:37:42.332Z,4.70
2023-07-20T06:45:13.878Z,4.40
2023-07-20T06:47:41.323Z,4.70
2023-07-20T06:50:08.892Z,4.20
2023-07-20T06:52:36.363Z,4.20
2023-07-20T06:55:05.955Z,4.60
2023-07-20T06:57:34.164Z,4.30
2023-07-20T07:00:05.837Z,4.60
2023-07-20T07:02:33.013Z,4.90
2023-07-20T07:05:01.012Z,5.00
2023-07-20T07:07:46.212Z,5.00
2023-07-20T07:10:14.084Z,4.60
2023-07-20T07:12:41.548Z,4.70
2023-07-20T07:15:09.616Z,5.20
2023-07-20T07:17:38.562Z,5.00
2023-07-20T07:20:11.155Z,4.90
2023-07-20T07:22:40.087Z,4.90
2023-07-20T07:25:09.247Z,5.30
2023-07-20T07:27:36.614Z,5.20
2023-07-20T07:30:06.891Z,5.30
2023-07-20T07:32:34.839Z,5.20
2023-07-20T07:35:03.074Z,4.50
2023-07-20T07:37:33.388Z,4.60
2023-07-20T07:40:05.846Z,4.50
2023-07-20T07:42:33.142Z,4.30
2023-07-20T07:45:00.328Z,4.50
2023-07-20T07:47:27.514Z,4.30
2023-07-20T07:49:54.749Z,4.40
2023-07-20T07:52:22.948Z,4.30
2023-07-20T07:54:50.174Z,4.20
2023-07-20T07:57:17.549Z,4.40
2023-07-20T07:59:44.782Z,4.30
2023-07-20T08:02:12.022Z,4.50
2023-07-20T08:07:09.028Z,4.20
2023-07-20T08:09:36.254Z,3.70
2023-07-20T08:12:05.132Z,3.90
2023-07-20T08:14:32.420Z,3.90
2023-07-20T08:17:00.119Z,4.20
2023-07-20T08:19:28.183Z,4.00
2023-07-20T08:21:55.618Z,4.00
2023-07-20T08:24:22.863Z,3.90
2023-07-20T08:26:50.203Z,3.70
2023-07-20T08:29:17.440Z,3.80
2023-07-20T08:31:44.654Z,3.70
2023-07-20T08:34:24.387Z,3.70
2023-07-20T08:36:57.542Z,3.80
2023-07-20T08:39:25.607Z,3.80
2023-07-20T08:41:56.117Z,3.70
2023-07-20T08:44:24.834Z,3.80
2023-07-20T08:49:19.880Z,3.60
2023-07-20T08:51:47.222Z,3.70
2023-07-20T08:54:14.976Z,3.40
2023-07-20T08:56:42.532Z,3.60
2023-07-20T08:59:09.735Z,4.00
2023-07-20T09:01:37.847Z,3.40
2023-07-20T09:04:05.199Z,3.70
2023-07-20T09:06:32.454Z,3.20
2023-07-20T09:09:00.102Z,3.60
2023-07-20T09:11:27.702Z,3.20
2023-07-20T09:14:06.368Z,4.00
2023-07-20T09:19:01.373Z,3.20
2023-07-20T09:21:32.169Z,3.00
2023-07-20T09:23:59.400Z,3.60
2023-07-20T09:26:28.762Z,3.20
2023-07-20T09:28:58.096Z,3.20
2023-07-20T09:31:25.335Z,3.40
2023-07-20T09:37:02.277Z,3.40
2023-07-20T09:39:13.008Z,3.40
2023-07-20T09:41:47.227Z,3.30
2023-07-20T09:51:49.621Z,3.40
2023-07-20T09:54:16.957Z,3.40
2023-07-20T09:56:44.153Z,3.30
2023-07-20T09:59:11.501Z,3.30
2023-07-20T10:01:39.957Z,3.30
2023-07-20T10:04:07.093Z,3.10
2023-07-20T10:06:34.691Z,3.40
2023-07-20T10:09:04.082Z,3.10
2023-07-20T10:11:34.049Z,2.90
2023-07-20T10:14:01.629Z,3.00
2023-07-20T10:16:35.352Z,2.90
2023-07-20T10:21:44.578Z,2.60
2023-07-20T10:24:13.058Z,3.20
2023-07-20T10:26:42.306Z,2.60
2023-07-20T10:29:09.855Z,2.90
2023-07-20T10:31:37.600Z,2.80
2023-07-20T10:34:04.805Z,2.90
2023-07-20T10:36:32.369Z,2.70
2023-07-20T10:39:00.282Z,2.70
2023-07-20T10:41:39.160Z,3.10
2023-07-20T10:44:11.282Z,2.90
2023-07-20T10:46:41.692Z,2.70
2023-07-20T10:49:10.681Z,2.70
2023-07-20T10:51:49.385Z,2.70
2023-07-20T10:54:19.604Z,2.70
2023-07-20T10:56:52.790Z,2.60
2023-07-20T10:59:26.244Z,2.50
2023-07-20T11:01:56.888Z,2.90
2023-07-20T11:04:43.509Z,2.70
2023-07-20T11:07:10.922Z,2.80
2023-07-20T11:09:39.405Z,2.70
2023-07-20T11:12:15.271Z,2.80
2023-07-20T11:14:54.507Z,2.70
2023-07-20T11:17:24.091Z,2.60
2023-07-20T11:22:22.193Z,2.70
2023-07-20T11:24:50.798Z,2.70
2023-07-20T11:29:47.348Z,2.90
2023-07-20T11:32:14.648Z,3.00
2023-07-20T11:34:41.940Z,3.00
2023-07-20T11:39:40.077Z,2.90
2023-07-20T11:42:08.312Z,3.20
2023-07-20T11:44:35.715Z,2.80
2023-07-20T11:47:10.779Z,2.80
2023-07-20T11:49:42.622Z,3.00
2023-07-20T11:52:17.204Z,3.10
2023-07-20T11:54:48.688Z,3.00
2023-07-20T11:57:20.136Z,3.00
2023-07-20T11:59:59.104Z,2.90
2023-07-20T12:02:28.884Z,3.10
2023-07-20T12:04:56.452Z,2.30
2023-07-20T12:07:23.776Z,2.80
2023-07-20T12:10:11.742Z,2.70
2023-07-20T12:12:42.937Z,2.80
2023-07-20T12:15:23.972Z,2.40
2023-07-20T12:17:54.638Z,2.60
2023-07-20T12:20:28.737Z,2.80
2023-07-20T12:23:00.037Z,2.40
2023-07-20T12:25:44.083Z,2.40
2023-07-20T12:28:15.620Z,2.50
2023-07-20T12:30:43.703Z,2.70
2023-07-20T12:33:12.945Z,2.80
2023-07-20T12:35:40.104Z,2.40
2023-07-20T12:38:07.669Z,2.60
2023-07-20T12:40:35.688Z,2.60
2023-07-20T12:43:03.049Z,2.60
2023-07-20T12:45:30.294Z,2.70
2023-07-20T12:47:57.791Z,2.60
2023-07-20T12:50:25.010Z,2.60
2023-07-20T12:52:52.308Z,2.60
2023-07-20T12:55:19.832Z,2.80
2023-07-20T12:57:47.400Z,2.90
2023-07-20T13:00:15.695Z,2.70
2023-07-20T13:02:43.116Z,2.50
2023-07-20T13:05:11.454Z,2.50
2023-07-20T13:10:11.767Z,2.70
2023-07-20T13:12:39.414Z,2.70
2023-07-20T13:15:08.071Z,2.30
2023-07-20T13:17:40.219Z,2.30
2023-07-20T13:20:10.216Z,2.50
2023-07-20T13:22:38.000Z,2.30
2023-07-20T13:25:05.571Z,2.60
2023-07-20T13:27:33.221Z,2.20
2023-07-20T13:30:03.976Z,2.40
2023-07-20T13:32:34.055Z,2.50
2023-07-20T13:35:03.128Z,2.40
2023-07-20T13:39:57.806Z,2.70
2023-07-20T13:42:25.365Z,2.40
2023-07-20T14:44:55.068Z,2.40
2023-07-20T14:49:50.917Z,2.40
2023-07-20T14:52:18.982Z,2.20
2023-07-20T14:54:46.661Z,2.60
2023-07-20T14:57:17.308Z,2.50
2023-07-20T14:59:47.062Z,2.70
2023-07-20T15:02:14.404Z,2.30
2023-07-20T15:04:51.872Z,2.60
2023-07-20T15:07:25.338Z,2.40
2023-07-20T15:09:52.862Z,2.40
2023-07-20T15:12:20.106Z,2.40
2023-07-20T15:14:51.456Z,2.90
2023-07-20T15:17:18.735Z,2.70
2023-07-20T15:19:48.208Z,2.90
2023-07-20T15:22:15.979Z,2.40
2023-07-20T15:24:43.405Z,2.70
2023-07-20T15:27:10.674Z,2.40
2023-07-20T15:29:38.326Z,2.20
2023-07-20T15:32:07.679Z,2.40
2023-07-20T15:34:35.275Z,2.30
2023-07-20T15:37:02.486Z,2.30
2023-07-20T15:39:29.651Z,2.60
2023-07-20T15:41:56.955Z,2.40
2023-07-20T15:44:24.268Z,2.40
2023-07-20T15:46:51.953Z,2.40
2023-07-20T15:49:19.391Z,2.20
2023-07-20T15:51:48.697Z,2.20
2023-07-20T15:54:16.281Z,2.70
2023-07-20T15:56:44.004Z,2.50
2023-07-20T15:59:15.785Z,2.20
2023-07-20T16:01:44.381Z,2.50
2023-07-20T16:06:40.051Z,2.50
2023-07-20T16:09:07.345Z,2.60
2023-07-20T16:11:37.064Z,2.30
2023-07-20T16:14:06.985Z,2.50
2023-07-20T16:16:35.981Z,2.70
2023-07-20T16:19:03.261Z,2.40
2023-07-20T16:21:31.555Z,2.60
2023-07-20T16:24:00.479Z,2.30
2023-07-20T16:26:27.922Z,2.60
2023-07-20T16:31:26.696Z,2.60
2023-07-20T16:34:06.004Z,3.00
2023-07-20T16:44:09.540Z,2.70
2023-07-20T16:49:10.485Z,2.50
2023-07-20T16:51:37.685Z,2.40
2023-07-20T16:54:09.123Z,2.20
2023-07-20T16:56:36.413Z,2.50
2023-07-20T16:59:06.230Z,2.50
2023-07-20T17:01:37.533Z,2.50
2023-07-20T17:04:04.914Z,2.50
2023-07-20T17:06:32.256Z,2.30
2023-07-20T17:09:01.834Z,2.40
2023-07-20T17:11:29.477Z,2.90
2023-07-20T17:13:57.250Z,2.40
2023-07-20T17:16:24.531Z,2.30
2023-07-20T17:18:51.847Z,2.20
2023-07-20T17:21:20.573Z,2.60
2023-07-20T17:28:55.364Z,2.50
2023-07-20T17:33:56.226Z,2.40
2023-07-20T17:38:54.833Z,2.40
2023-07-20T17:41:23.545Z,2.60
2023-07-20T17:43:51.348Z,2.30
2023-07-20T17:48:52.146Z,3.60
2023-07-20T17:51:22.718Z,3.00
2023-07-20T17:53:50.833Z,2.70
2023-07-20T17:56:18.353Z,2.70
2023-07-20T17:58:45.642Z,2.60
2023-07-20T18:01:16.949Z,2.80
2023-07-20T18:03:44.733Z,2.90
2023-07-20T18:06:11.969Z,2.50
2023-07-20T18:08:39.493Z,3.20
2023-07-20T18:11:07.719Z,2.80
2023-07-20T18:13:37.609Z,2.90
2023-07-20T18:16:06.309Z,2.70
2023-07-20T18:18:36.193Z,2.70
2023-07-20T18:21:03.317Z,2.90
2023-07-20T18:23:30.476Z,2.90
2023-07-20T18:25:57.740Z,2.60
2023-07-20T18:28:24.897Z,2.60
2023-07-20T18:30:52.040Z,2.40
2023-07-20T18:33:20.073Z,2.70
2023-07-20T18:35:47.809Z,2.60
2023-07-20T18:38:14.948Z,2.40
2023-07-20T18:40:42.177Z,2.50
2023-07-20T18:43:09.892Z,2.50
2023-07-20T18:45:37.139Z,2.30
2023-07-20T18:48:04.961Z,2.60
2023-07-20T18:50:33.361Z,2.50
2023-07-20T18:53:01.754Z,2.80
2023-07-20T18:55:29.290Z,2.80
2023-07-20T18:57:57.592Z,2.90
2023-07-20T19:00:25.028Z,2.90
2023-07-20T19:02:53.051Z,3.00
2023-07-20T19:05:21.733Z,2.80
2023-07-20T19:07:59.450Z,2.70
2023-07-20T19:10:28.727Z,2.80
2023-07-20T19:12:59.448Z,3.10
2023-07-20T19:15:27.236Z,2.70
2023-07-20T19:17:55.164Z,2.70
2023-07-20T19:20:25.132Z,2.90
2023-07-20T19:22:52.155Z,3.00
2023-07-20T19:25:22.592Z,3.00
2023-07-20T19:27:53.527Z,3.10
2023-07-20T19:30:21.251Z,3.20
2023-07-20T19:32:48.888Z,3.60
2023-07-20T19:35:16.185Z,3.50
2023-07-20T19:37:45.759Z,3.30
2023-07-20T19:40:14.767Z,3.60
2023-07-20T19:45:11.394Z,3.50
2023-07-20T19:47:38.714Z,3.40
2023-07-20T19:50:07.328Z,3.30
2023-07-20T19:52:36.411Z,2.90
2023-07-20T19:55:06.978Z,3.30
2023-07-20T20:00:13.246Z,3.20
2023-07-20T20:05:11.825Z,3.30
2023-07-20T20:07:39.145Z,3.30
2023-07-20T20:10:06.831Z,3.00
2023-07-20T20:12:35.369Z,3.30
2023-07-20T20:15:02.551Z,3.50
2023-07-20T20:17:29.778Z,3.20
2023-07-20T20:19:57.208Z,3.60
2023-07-20T20:22:26.039Z,3.30
2023-07-20T20:24:53.880Z,3.00
2023-07-20T20:27:21.096Z,3.00
2023-07-20T20:29:48.464Z,3.10
2023-07-20T20:32:15.635Z,3.90
2023-07-20T20:34:42.807Z,3.70
2023-07-20T20:37:09.918Z,3.30
2023-07-20T20:39:37.221Z,3.10
2023-07-20T20:42:04.605Z,3.10
2023-07-20T20:44:32.927Z,3.30
2023-07-20T20:47:04.075Z,3.40
2023-07-20T20:49:32.512Z,3.20
2023-07-20T20:51:59.601Z,3.10
2023-07-20T20:54:26.756Z,2.90
2023-07-20T21:01:51.861Z,3.30
2023-07-20T21:04:19.038Z,3.10
2023-07-20T21:06:46.165Z,3.10
2023-07-20T21:09:13.184Z,3.10
2023-07-20T21:11:40.394Z,3.30
2023-07-20T21:14:07.560Z,3.20
2023-07-20T21:16:34.830Z,3.20
2023-07-20T21:19:02.894Z,3.90
2023-07-20T21:21:30.364Z,3.20
2023-07-20T21:23:57.405Z,3.70
2023-07-20T21:26:25.944Z,2.90
2023-07-20T21:28:53.900Z,3.60
2023-07-20T21:31:21.041Z,3.30
2023-07-20T21:33:49.132Z,3.30
2023-07-20T21:36:16.198Z,3.20
2023-07-20T21:38:43.538Z,2.90
2023-07-20T21:41:11.542Z,3.20
2023-07-20T21:43:39.081Z,3.10
2023-07-20T21:46:06.372Z,2.80
2023-07-20T21:48:35.141Z,3.00
2023-07-20T21:51:02.216Z,3.40
2023-07-20T21:53:30.561Z,3.00
2023-07-20T21:55:59.200Z,3.00
2023-07-20T21:58:26.313Z,3.10
2023-07-20T22:00:54.584Z,2.90
2023-07-20T22:03:23.360Z,3.10
2023-07-20T22:08:26.409Z,2.70
2023-07-20T22:10:55.018Z,2.80
2023-07-20T22:13:22.564Z,2.80
2023-07-20T22:15:53.111Z,3.00
2023-07-20T22:18:34.781Z,2.70
2023-07-20T22:21:06.473Z,2.90
2023-07-20T22:23:34.092Z,2.70
2023-07-20T22:26:01.248Z,2.60
2023-07-20T22:28:29.066Z,2.80
2023-07-20T22:30:59.694Z,2.80
2023-07-20T22:33:32.929Z,2.70
2023-07-20T22:35:59.999Z,2.70
2023-07-20T22:38:27.347Z,3.00
2023-07-20T22:40:54.577Z,2.80
2023-07-20T22:43:26.740Z,2.90
2023-07-20T22:45:56.274Z,2.80
2023-07-20T22:48:25.057Z,2.80
2023-07-20T22:50:54.135Z,3.20
2023-07-20T22:53:23.338Z,2.90
2023-07-20T22:58:17.532Z,3.10
2023-07-20T23:00:46.546Z,3.20
2023-07-20T23:03:13.930Z,2.60
2023-07-20T23:05:41.258Z,2.80
2023-07-20T23:08:08.497Z,3.00
2023-07-20T23:10:36.268Z,3.20
2023-07-20T23:13:04.275Z,3.00
2023-07-20T23:15:31.452Z,3.30
2023-07-20T23:17:58.685Z,2.90
2023-07-20T23:20:29.575Z,3.00
2023-07-20T23:22:57.381Z,2.80
2023-07-20T23:25:24.453Z,3.00
2023-07-20T23:27:57.082Z,3.00
2023-07-20T23:30:24.869Z,3.00
2023-07-20T23:32:53.983Z,2.80
2023-07-20T23:35:23.108Z,3.00
2023-07-20T23:37:50.810Z,2.80
2023-07-20T23:40:18.322Z,3.30
2023-07-20T23:42:47.098Z,3.10
2023-07-20T23:45:15.736Z,3.30
2023-07-20T23:47:43.655Z,3.30
2023-07-20T23:50:11.474Z,3.20
2023-07-20T23:52:38.683Z,3.20
2023-07-20T23:55:08.325Z,3.40
2023-07-20T23:57:36.910Z,3.40
